Time;durP1;ratioP1;P1;durP2;ratioP2;P2;SDS_P1;SDS_P2;PMS_P1;PMS_P2;Temp;Humidity;BMP_temperature;BMP_pressure;BME280_temperature;BME280_humidity;BME280_pressure;Samples;Min_cycle;Max_cycle;Signal;HPM_P1;HPM_P2
2022/07/15 00:01:22;;;;;;;3.80;2.50;;;;;;;;;;103116;1320;22711;-25
2022/07/15 00:03:50;;;;;;;2.90;2.40;;;;;;;;;;103152;1323;22559;-25
2022/07/15 00:06:19;;;;;;;10.00;2.40;;;;;;;;;;103092;1320;22728;-25
2022/07/15 00:08:48;;;;;;;5.80;1.80;;;;;;;;;;103198;1314;22696;-27
2022/07/15 00:11:17;;;;;;;3.40;1.60;;;;;;;;;;103132;1314;22717;-29
2022/07/15 00:13:46;;;;;;;3.10;1.50;;;;;;;;;;103226;1326;22559;-29
2022/07/15 00:16:15;;;;;;;3.40;1.30;;;;;;;;;;103175;1320;22806;-25
2022/07/15 00:18:43;;;;;;;3.10;1.60;;;;;;;;;;103181;1314;22838;-24
2022/07/15 00:21:12;;;;;;;2.30;1.00;;;;;;;;;;103239;1319;22967;-27
2022/07/15 00:23:41;;;;;;;3.40;1.00;;;;;;;;;;103303;1326;23029;-28
2022/07/15 00:26:10;;;;;;;3.10;1.10;;;;;;;;;;103248;1314;22712;-26
2022/07/15 00:28:38;;;;;;;3.20;1.20;;;;;;;;;;103295;1324;22875;-26
2022/07/15 00:31:07;;;;;;;2.20;1.20;;;;;;;;;;103198;1323;22663;-24
2022/07/15 00:33:36;;;;;;;1.20;0.70;;;;;;;;;;103160;1323;22986;-28
2022/07/15 00:36:05;;;;;;;3.20;1.20;;;;;;;;;;103243;1314;22979;-29
2022/07/15 00:38:34;;;;;;;3.10;1.10;;;;;;;;;;103137;1320;22879;-28
2022/07/15 00:41:03;;;;;;;5.50;0.90;;;;;;;;;;103091;1315;23005;-28
2022/07/15 00:43:32;;;;;;;1.30;0.70;;;;;;;;;;103187;1320;23188;-31
2022/07/15 00:46:00;;;;;;;1.50;0.70;;;;;;;;;;103237;1314;22781;-27
2022/07/15 00:48:29;;;;;;;7.40;1.30;;;;;;;;;;103086;1323;22565;-28
2022/07/15 00:50:59;;;;;;;3.40;0.80;;;;;;;;;;103076;1320;22575;-29
2022/07/15 00:53:28;;;;;;;0.80;0.40;;;;;;;;;;103312;1314;22583;-28
2022/07/15 00:55:58;;;;;;;4.50;1.00;;;;;;;;;;103276;1315;22572;-25
2022/07/15 00:58:27;;;;;;;3.60;1.00;;;;;;;;;;103247;1320;25468;-25
2022/07/15 01:00:56;;;;;;;4.00;1.40;;;;;;;;;;103182;1313;22544;-29
2022/07/15 01:03:25;;;;;;;2.90;1.30;;;;;;;;;;103048;1323;22728;-28
2022/07/15 01:05:55;;;;;;;3.70;0.90;;;;;;;;;;103082;1320;22583;-29
2022/07/15 01:08:24;;;;;;;10.40;0.60;;;;;;;;;;103115;1325;22835;-23
2022/07/15 01:10:52;;;;;;;2.30;0.80;;;;;;;;;;103164;1323;22610;-23
2022/07/15 01:13:21;;;;;;;4.60;1.20;;;;;;;;;;103118;1320;22566;-29
2022/07/15 01:15:50;;;;;;;1.10;0.70;;;;;;;;;;103259;1314;23030;-25
2022/07/15 01:18:19;;;;;;;1.20;0.60;;;;;;;;;;103129;1323;22552;-25
2022/07/15 01:20:48;;;;;;;1.60;0.80;;;;;;;;;;103253;1314;22710;-26
2022/07/15 01:23:17;;;;;;;5.30;1.10;;;;;;;;;;103268;1323;22585;-25
2022/07/15 01:25:45;;;;;;;6.50;1.30;;;;;;;;;;103111;1314;22815;-26
2022/07/15 01:28:14;;;;;;;3.90;1.60;;;;;;;;;;103244;1323;22575;-28
2022/07/15 01:30:43;;;;;;;3.90;1.90;;;;;;;;;;103262;1314;22835;-25
2022/07/15 01:33:12;;;;;;;1.00;0.80;;;;;;;;;;103338;1320;22847;-29
2022/07/15 01:35:41;;;;;;;2.80;1.40;;;;;;;;;;103112;1313;22804;-24
2022/07/15 01:38:10;;;;;;;1.20;1.10;;;;;;;;;;103173;1314;22531;-29
2022/07/15 01:40:39;;;;;;;4.40;1.70;;;;;;;;;;103192;1315;22527;-24
2022/07/15 01:43:08;;;;;;;2.20;1.20;;;;;;;;;;103161;1314;22832;-25
2022/07/15 01:45:36;;;;;;;13.20;1.10;;;;;;;;;;103191;1313;22601;-29
2022/07/15 01:48:05;;;;;;;3.00;1.00;;;;;;;;;;103165;1323;22550;-29
2022/07/15 01:50:34;;;;;;;4.70;1.20;;;;;;;;;;103210;1323;24262;-28
2022/07/15 01:53:03;;;;;;;2.80;1.10;;;;;;;;;;103310;1326;22586;-25
2022/07/15 01:55:32;;;;;;;5.40;2.40;;;;;;;;;;103125;1313;22561;-31
2022/07/15 01:58:00;;;;;;;4.00;2.00;;;;;;;;;;103277;1323;22722;-26
2022/07/15 02:00:29;;;;;;;1.70;0.80;;;;;;;;;;103231;1315;22530;-30
2022/07/15 02:02:58;;;;;;;2.30;0.90;;;;;;;;;;102569;1320;1003779;-29
2022/07/15 02:05:27;;;;;;;7.90;1.00;;;;;;;;;;103207;1314;22564;-26
2022/07/15 02:07:56;;;;;;;4.60;1.10;;;;;;;;;;103359;1320;22542;-25
2022/07/15 02:10:24;;;;;;;9.90;1.10;;;;;;;;;;103228;1322;22572;-30
2022/07/15 02:12:53;;;;;;;3.20;1.00;;;;;;;;;;103188;1323;22864;-29
2022/07/15 02:15:22;;;;;;;3.00;0.90;;;;;;;;;;103112;1324;22679;-24
2022/07/15 02:17:52;;;;;;;5.90;0.60;;;;;;;;;;103146;1320;23125;-30
2022/07/15 02:20:20;;;;;;;11.60;1.00;;;;;;;;;;103196;1314;22771;-25
2022/07/15 02:22:49;;;;;;;1.50;0.70;;;;;;;;;;103262;1313;22569;-24
2022/07/15 02:25:18;;;;;;;3.10;0.90;;;;;;;;;;103236;1320;22687;-24
2022/07/15 02:27:47;;;;;;;1.90;1.00;;;;;;;;;;103294;1313;22850;-24
2022/07/15 02:30:15;;;;;;;11.30;0.80;;;;;;;;;;103188;1313;22564;-22
2022/07/15 02:32:44;;;;;;;2.90;0.80;;;;;;;;;;103141;1323;22854;-28
2022/07/15 02:35:14;;;;;;;1.90;1.00;;;;;;;;;;103230;1314;22581;-28
2022/07/15 02:37:43;;;;;;;10.30;1.00;;;;;;;;;;103256;1320;22956;-24
2022/07/15 02:40:12;;;;;;;1.50;1.00;;;;;;;;;;103196;1314;22723;-24
2022/07/15 02:42:46;;;;;;;3.60;1.20;;;;;;;;;;103119;1320;22556;-23
2022/07/15 02:45:15;;;;;;;10.20;1.40;;;;;;;;;;103110;1301;22548;-28
2022/07/15 02:47:45;;;;;;;8.50;0.80;;;;;;;;;;103162;1320;22724;-30
2022/07/15 02:50:14;;;;;;;2.70;0.70;;;;;;;;;;103294;1313;22725;-30
2022/07/15 02:52:43;;;;;;;1.20;1.00;;;;;;;;;;103096;1320;23149;-24
2022/07/15 02:55:12;;;;;;;4.50;1.10;;;;;;;;;;103196;1314;22715;-28
2022/07/15 02:57:41;;;;;;;3.00;1.10;;;;;;;;;;103077;1320;22752;-29
2022/07/15 03:00:11;;;;;;;1.80;0.70;;;;;;;;;;103135;1314;22765;-24
2022/07/15 03:02:40;;;;;;;2.70;1.10;;;;;;;;;;103162;1320;22575;-24
2022/07/15 03:05:09;;;;;;;5.90;0.80;;;;;;;;;;103233;1323;22750;-28
2022/07/15 03:07:38;;;;;;;2.00;1.20;;;;;;;;;;102388;1322;1003754;-31
2022/07/15 03:10:07;;;;;;;4.80;1.60;;;;;;;;;;103173;1314;22971;-24
2022/07/15 03:12:36;;;;;;;2.00;0.80;;;;;;;;;;103135;1323;22719;-25
2022/07/15 03:15:06;;;;;;;1.80;0.90;;;;;;;;;;103172;1320;22560;-28
2022/07/15 03:17:34;;;;;;;1.30;0.80;;;;;;;;;;103168;1320;22818;-25
2022/07/15 03:20:04;;;;;;;4.30;1.20;;;;;;;;;;103116;1320;23044;-30
2022/07/15 03:22:33;;;;;;;5.20;1.20;;;;;;;;;;103171;1321;22680;-29
2022/07/15 03:25:02;;;;;;;3.40;1.20;;;;;;;;;;103160;1314;22565;-26
2022/07/15 03:27:31;;;;;;;2.70;0.90;;;;;;;;;;103134;1321;22548;-24
2022/07/15 03:29:59;;;;;;;9.40;1.10;;;;;;;;;;103275;1313;22680;-25
2022/07/15 03:32:28;;;;;;;2.60;0.90;;;;;;;;;;103190;1326;22723;-24
2022/07/15 03:34:57;;;;;;;1.70;0.70;;;;;;;;;;103214;1313;22551;-24
2022/07/15 03:37:26;;;;;;;2.50;0.90;;;;;;;;;;103159;1320;22562;-24
2022/07/15 03:39:55;;;;;;;2.70;0.90;;;;;;;;;;103070;1314;22746;-25
2022/07/15 03:42:23;;;;;;;1.10;0.60;;;;;;;;;;103244;1326;22582;-30
2022/07/15 03:44:52;;;;;;;2.00;0.80;;;;;;;;;;103257;1323;22715;-25
2022/07/15 03:47:21;;;;;;;1.70;0.60;;;;;;;;;;103110;1320;22561;-28
2022/07/15 03:49:50;;;;;;;2.00;0.40;;;;;;;;;;103265;1320;22576;-24
2022/07/15 03:52:19;;;;;;;4.40;1.20;;;;;;;;;;103208;1323;23010;-30
2022/07/15 03:54:48;;;;;;;2.70;1.20;;;;;;;;;;103187;1313;22574;-28
2022/07/15 03:57:17;;;;;;;12.60;1.00;;;;;;;;;;103123;1320;22718;-28
2022/07/15 03:59:46;;;;;;;1.00;0.60;;;;;;;;;;103106;1313;22566;-25
2022/07/15 04:02:15;;;;;;;1.40;1.20;;;;;;;;;;103113;1320;22559;-30
2022/07/15 04:04:43;;;;;;;1.50;0.70;;;;;;;;;;102753;1314;573475;-25
2022/07/15 04:07:12;;;;;;;3.20;0.80;;;;;;;;;;103104;1320;22712;-26
2022/07/15 04:09:41;;;;;;;1.00;0.40;;;;;;;;;;103141;1313;22560;-24
2022/07/15 04:12:10;;;;;;;1.60;0.30;;;;;;;;;;103160;1322;22720;-28
2022/07/15 04:14:39;;;;;;;1.00;0.30;;;;;;;;;;103149;1314;22566;-24
2022/07/15 04:17:08;;;;;;;1.70;0.50;;;;;;;;;;103112;1326;22736;-24
2022/07/15 04:19:37;;;;;;;0.60;0.50;;;;;;;;;;103152;1314;22549;-28
2022/07/15 04:22:06;;;;;;;2.30;0.60;;;;;;;;;;103085;1313;22835;-28
2022/07/15 04:24:34;;;;;;;2.40;0.70;;;;;;;;;;103086;1313;22680;-28
2022/07/15 04:27:03;;;;;;;3.50;1.40;;;;;;;;;;103091;1314;22575;-28
2022/07/15 04:29:32;;;;;;;0.70;0.40;;;;;;;;;;103173;1322;22723;-25
2022/07/15 04:32:01;;;;;;;1.40;0.60;;;;;;;;;;103131;1314;22564;-26
2022/07/15 04:34:30;;;;;;;1.40;0.50;;;;;;;;;;103126;1314;22708;-25
2022/07/15 04:36:59;;;;;;;23.40;0.90;;;;;;;;;;103194;1323;22557;-25
2022/07/15 04:39:28;;;;;;;0.70;0.50;;;;;;;;;;103229;1314;22560;-24
2022/07/15 04:41:56;;;;;;;0.60;0.30;;;;;;;;;;103168;1313;22569;-28
2022/07/15 04:44:25;;;;;;;4.20;1.80;;;;;;;;;;103101;1323;22579;-28
2022/07/15 04:46:54;;;;;;;1.50;0.70;;;;;;;;;;103220;1314;22819;-28
2022/07/15 04:51:55;;;;;;;1.70;0.50;;;;;;;;;;103377;1320;22867;-25
2022/07/15 04:54:24;;;;;;;32.20;1.50;;;;;;;;;;103139;1326;22698;-24
2022/07/15 04:56:53;;;;;;;1.50;0.40;;;;;;;;;;102508;1320;1003701;-28
2022/07/15 04:59:22;;;;;;;1.00;0.40;;;;;;;;;;103064;1320;22573;-28
2022/07/15 05:01:50;;;;;;;2.00;0.60;;;;;;;;;;103270;1313;22548;-25
2022/07/15 05:04:19;;;;;;;1.50;0.50;;;;;;;;;;103216;1323;23032;-28
2022/07/15 05:06:48;;;;;;;4.30;0.70;;;;;;;;;;103055;1313;22714;-27
2022/07/15 05:09:17;;;;;;;1.80;0.50;;;;;;;;;;103191;1323;22712;-29
2022/07/15 05:11:46;;;;;;;0.40;0.20;;;;;;;;;;103166;1314;22822;-28
2022/07/15 05:14:14;;;;;;;1.10;0.40;;;;;;;;;;103139;1320;22560;-22
2022/07/15 05:16:43;;;;;;;0.70;0.40;;;;;;;;;;103136;1313;22695;-28
2022/07/15 05:19:20;;;;;;;1.90;0.40;;;;;;;;;;103146;1314;22722;-28
2022/07/15 05:21:49;;;;;;;0.50;0.20;;;;;;;;;;103136;1313;22561;-27
2022/07/15 05:24:18;;;;;;;6.00;0.70;;;;;;;;;;103197;1323;22728;-28
2022/07/15 05:26:47;;;;;;;0.70;0.40;;;;;;;;;;103179;1327;22708;-28
2022/07/15 05:29:16;;;;;;;1.70;0.50;;;;;;;;;;103253;1323;22572;-24
2022/07/15 05:31:45;;;;;;;1.10;0.50;;;;;;;;;;103176;1323;22825;-26
2022/07/15 05:34:14;;;;;;;8.40;0.60;;;;;;;;;;103114;1323;22561;-25
2022/07/15 05:36:43;;;;;;;0.90;0.50;;;;;;;;;;103174;1313;22719;-24
2022/07/15 05:39:13;;;;;;;1.00;0.30;;;;;;;;;;103148;1323;22546;-25
2022/07/15 05:41:41;;;;;;;2.70;0.40;;;;;;;;;;103144;1313;22726;-25
2022/07/15 05:44:10;;;;;;;6.70;0.60;;;;;;;;;;103298;1323;22718;-29
2022/07/15 05:46:40;;;;;;;0.30;0.20;;;;;;;;;;103231;1328;22564;-25
2022/07/15 05:49:10;;;;;;;0.20;0.10;;;;;;;;;;103146;1314;22721;-29
2022/07/15 05:51:38;;;;;;;8.00;0.40;;;;;;;;;;103131;1323;22580;-25
2022/07/15 05:54:07;;;;;;;0.80;0.30;;;;;;;;;;103181;1323;22863;-25
2022/07/15 05:56:36;;;;;;;2.30;0.40;;;;;;;;;;103230;1313;22807;-29
2022/07/15 05:59:05;;;;;;;1.30;0.40;;;;;;;;;;103123;1323;23152;-29
2022/07/15 06:01:34;;;;;;;0.40;0.20;;;;;;;;;;103150;1314;22564;-25
2022/07/15 06:04:03;;;;;;;0.90;0.20;;;;;;;;;;103361;1321;23021;-25
2022/07/15 06:06:32;;;;;;;1.10;0.20;;;;;;;;;;102444;1314;1003940;-31
2022/07/15 06:09:09;;;;;;;2.00;0.10;;;;;;;;;;103198;1314;22663;-29
2022/07/15 06:11:38;;;;;;;0.80;0.20;;;;;;;;;;103311;1322;22617;-25
2022/07/15 06:14:06;;;;;;;1.20;0.40;;;;;;;;;;103209;1323;22918;-31
2022/07/15 06:16:35;;;;;;;2.20;0.50;;;;;;;;;;103261;1313;22863;-25
2022/07/15 06:19:04;;;;;;;3.70;0.50;;;;;;;;;;103286;1323;22970;-25
2022/07/15 06:21:33;;;;;;;1.30;0.30;;;;;;;;;;103163;1313;22559;-25
2022/07/15 06:24:01;;;;;;;0.20;0.10;;;;;;;;;;103181;1323;22565;-27
2022/07/15 06:26:30;;;;;;;0.70;0.20;;;;;;;;;;103341;1314;22831;-27
2022/07/15 06:28:59;;;;;;;1.20;0.40;;;;;;;;;;103165;1323;22558;-27
2022/07/15 06:31:28;;;;;;;0.60;0.40;;;;;;;;;;103215;1314;22580;-27
2022/07/15 06:34:05;;;;;;;2.10;0.40;;;;;;;;;;103135;1314;22831;-24
2022/07/15 06:36:43;;;;;;;0.50;0.20;;;;;;;;;;103235;1323;22568;-29
2022/07/15 06:39:12;;;;;;;0.50;0.20;;;;;;;;;;103295;1323;22566;-29
2022/07/15 06:41:41;;;;;;;3.30;0.30;;;;;;;;;;103013;1323;22589;-28
2022/07/15 06:44:09;;;;;;;1.60;0.70;;;;;;;;;;103174;1314;22556;-28
2022/07/15 06:46:38;;;;;;;0.30;0.10;;;;;;;;;;103084;1323;22920;-28
2022/07/15 06:49:08;;;;;;;1.20;0.10;;;;;;;;;;103099;1323;22826;-25
2022/07/15 06:51:36;;;;;;;0.60;0.20;;;;;;;;;;103220;1320;22583;-29
2022/07/15 06:54:07;;;;;;;1.10;0.30;;;;;;;;;;103194;1323;22564;-29
2022/07/15 06:56:35;;;;;;;0.80;0.10;;;;;;;;;;103269;1322;23029;-29
2022/07/15 06:59:04;;;;;;;0.90;0.20;;;;;;;;;;103185;1323;22792;-25
2022/07/15 07:01:42;;;;;;;2.60;0.10;;;;;;;;;;103075;1324;22859;-29
2022/07/15 07:04:19;;;;;;;5.30;0.30;;;;;;;;;;103143;1314;23328;-29
2022/07/15 07:06:56;;;;;;;0.50;0.10;;;;;;;;;;103110;1313;22640;-25
2022/07/15 07:09:33;;;;;;;0.90;0.20;;;;;;;;;;103199;1323;22859;-27
2022/07/15 07:12:11;;;;;;;2.40;0.10;;;;;;;;;;103185;1326;23045;-27
2022/07/15 07:14:39;;;;;;;2.00;0.20;;;;;;;;;;103136;1323;22864;-29
2022/07/15 07:17:08;;;;;;;0.10;0.10;;;;;;;;;;103136;1323;22859;-25
2022/07/15 07:19:37;;;;;;;1.70;0.30;;;;;;;;;;103249;1322;22877;-31
2022/07/15 07:22:06;;;;;;;0.50;0.10;;;;;;;;;;103126;1314;22880;-30
2022/07/15 07:24:35;;;;;;;0.10;0.00;;;;;;;;;;103183;1313;22701;-25
2022/07/15 07:27:04;;;;;;;4.30;0.30;;;;;;;;;;103194;1313;22614;-23
2022/07/15 07:29:33;;;;;;;2.80;0.20;;;;;;;;;;103071;1320;22858;-26
2022/07/15 07:32:02;;;;;;;0.30;0.10;;;;;;;;;;103186;1314;25323;-30
2022/07/15 07:34:32;;;;;;;0.60;0.10;;;;;;;;;;103337;1314;22568;-30
2022/07/15 07:37:01;;;;;;;0.90;0.20;;;;;;;;;;103184;1312;23034;-28
2022/07/15 07:39:29;;;;;;;2.30;0.10;;;;;;;;;;103062;1313;22857;-24
2022/07/15 07:41:59;;;;;;;0.60;0.10;;;;;;;;;;103074;1323;22583;-24
2022/07/15 07:44:28;;;;;;;2.20;0.10;;;;;;;;;;103210;1322;22577;-30
2022/07/15 07:46:56;;;;;;;0.50;0.20;;;;;;;;;;103160;1313;22736;-26
2022/07/15 07:49:26;;;;;;;0.20;0.10;;;;;;;;;;103115;1319;22567;-28
2022/07/15 07:51:55;;;;;;;0.00;0.00;;;;;;;;;;103198;1326;22546;-29
2022/07/15 07:54:23;;;;;;;4.70;0.30;;;;;;;;;;103422;1323;24319;-26
2022/07/15 07:56:52;;;;;;;0.90;0.30;;;;;;;;;;103129;1320;22863;-31
2022/07/15 07:59:21;;;;;;;0.80;0.30;;;;;;;;;;103178;1323;22819;-25
2022/07/15 08:01:58;;;;;;;0.10;0.10;;;;;;;;;;103120;1313;22722;-29
2022/07/15 08:04:27;;;;;;;0.90;0.40;;;;;;;;;;103175;1313;22631;-28
2022/07/15 08:06:57;;;;;;;1.00;0.20;;;;;;;;;;103251;1320;22801;-30
2022/07/15 08:09:26;;;;;;;0.90;0.40;;;;;;;;;;103175;1320;22719;-27
2022/07/15 08:11:55;;;;;;;0.10;0.00;;;;;;;;;;103131;1323;22559;-23
2022/07/15 08:14:24;;;;;;;2.20;0.20;;;;;;;;;;103184;1323;22565;-28
2022/07/15 08:16:53;;;;;;;0.30;0.20;;;;;;;;;;103255;1314;22593;-25
2022/07/15 08:19:21;;;;;;;2.10;0.30;;;;;;;;;;103182;1323;22719;-25
2022/07/15 08:21:50;;;;;;;1.20;0.30;;;;;;;;;;103183;1314;22562;-31
2022/07/15 08:24:19;;;;;;;1.20;0.30;;;;;;;;;;103299;1326;22564;-31
2022/07/15 08:26:48;;;;;;;1.20;0.30;;;;;;;;;;103176;1323;22714;-28
2022/07/15 08:29:17;;;;;;;1.50;0.60;;;;;;;;;;103237;1320;22593;-29
2022/07/15 08:31:46;;;;;;;3.00;0.20;;;;;;;;;;103214;1314;22554;-29
2022/07/15 08:34:23;;;;;;;1.10;0.60;;;;;;;;;;103048;1323;22825;-25
2022/07/15 08:36:52;;;;;;;1.40;0.40;;;;;;;;;;103179;1323;22563;-25
2022/07/15 08:39:21;;;;;;;2.70;0.40;;;;;;;;;;103200;1323;22569;-29
2022/07/15 08:41:51;;;;;;;0.50;0.20;;;;;;;;;;103118;1316;22680;-25
2022/07/15 08:44:20;;;;;;;2.70;0.30;;;;;;;;;;103181;1323;22818;-26
2022/07/15 08:46:58;;;;;;;0.80;0.30;;;;;;;;;;103283;1307;23941;-23
2022/07/15 08:49:28;;;;;;;1.20;0.30;;;;;;;;;;103157;1320;22718;-28
2022/07/15 08:51:59;;;;;;;1.40;0.40;;;;;;;;;;103326;1320;22581;-28
2022/07/15 08:54:28;;;;;;;1.40;0.40;;;;;;;;;;103332;1320;22719;-25
2022/07/15 08:56:57;;;;;;;0.70;0.30;;;;;;;;;;103099;1320;25354;-27
2022/07/15 08:59:26;;;;;;;0.30;0.10;;;;;;;;;;103161;1326;22562;-24
2022/07/15 09:01:55;;;;;;;0.30;0.20;;;;;;;;;;103170;1313;22546;-24
2022/07/15 09:04:24;;;;;;;1.70;1.00;;;;;;;;;;103216;1323;22819;-24
2022/07/15 09:06:52;;;;;;;2.70;0.20;;;;;;;;;;103266;1313;22559;-25
2022/07/15 09:09:24;;;;;;;0.30;0.10;;;;;;;;;;103312;1323;22576;-24
2022/07/15 09:11:54;;;;;;;20.10;0.80;;;;;;;;;;101736;1320;1003823;-31
2022/07/15 09:14:25;;;;;;;0.90;0.20;;;;;;;;;;103246;1320;22864;-25
2022/07/15 09:16:57;;;;;;;2.00;0.30;;;;;;;;;;103282;1323;22699;-29
2022/07/15 09:19:26;;;;;;;2.70;0.30;;;;;;;;;;103197;1320;22574;-29
2022/07/15 09:21:58;;;;;;;0.20;0.10;;;;;;;;;;103348;1314;23143;-29
2022/07/15 09:24:27;;;;;;;0.40;0.20;;;;;;;;;;103090;1323;22551;-24
2022/07/15 09:26:56;;;;;;;2.20;0.50;;;;;;;;;;103200;1323;22936;-24
2022/07/15 09:34:39;;;;;;;0.00;0.00;;;;;;;;;;103217;1320;22961;-29
2022/07/15 09:37:07;;;;;;;0.90;0.30;;;;;;;;;;103173;1313;22544;-24
2022/07/15 09:39:36;;;;;;;1.40;0.30;;;;;;;;;;103317;1313;22585;-25
2022/07/15 09:42:06;;;;;;;0.80;0.10;;;;;;;;;;103242;1320;22556;-25
2022/07/15 09:44:35;;;;;;;0.10;0.10;;;;;;;;;;103246;1320;22863;-29
2022/07/15 09:47:04;;;;;;;0.50;0.10;;;;;;;;;;103143;1313;22863;-28
2022/07/15 09:49:33;;;;;;;0.30;0.10;;;;;;;;;;103137;1314;22708;-30
2022/07/15 09:52:03;;;;;;;0.90;0.30;;;;;;;;;;103180;1320;22552;-29
2022/07/15 09:54:33;;;;;;;0.90;0.10;;;;;;;;;;103371;1320;23074;-23
2022/07/15 09:57:03;;;;;;;0.50;0.10;;;;;;;;;;103090;1323;22716;-26
2022/07/15 09:59:33;;;;;;;1.40;0.10;;;;;;;;;;102405;1320;1003349;-24
2022/07/15 10:02:02;;;;;;;2.00;0.30;;;;;;;;;;103171;1320;22580;-28
2022/07/15 10:04:31;;;;;;;0.80;0.20;;;;;;;;;;103229;1314;22623;-26
2022/07/15 10:07:00;;;;;;;3.60;0.30;;;;;;;;;;103206;1314;23032;-24
2022/07/15 10:09:29;;;;;;;2.70;0.20;;;;;;;;;;103312;1314;22578;-25
2022/07/15 10:12:00;;;;;;;2.60;0.30;;;;;;;;;;103134;1313;22548;-31
2022/07/15 10:14:34;;;;;;;9.10;0.80;;;;;;;;;;103246;1320;24238;-31
2022/07/15 10:17:08;;;;;;;0.30;0.10;;;;;;;;;;103180;1320;22682;-25
2022/07/15 10:19:41;;;;;;;0.80;0.70;;;;;;;;;;103194;1323;22867;-29
2022/07/15 10:22:13;;;;;;;1.10;0.40;;;;;;;;;;103250;1320;22824;-25
2022/07/15 10:25:02;;;;;;;0.80;0.60;;;;;;;;;;103185;1320;22832;-25
2022/07/15 10:27:43;;;;;;;0.60;0.20;;;;;;;;;;103205;1320;22568;-29
2022/07/15 10:30:12;;;;;;;0.40;0.10;;;;;;;;;;103239;1321;22736;-29
2022/07/15 10:32:44;;;;;;;1.60;0.30;;;;;;;;;;103191;1322;22563;-25
2022/07/15 10:35:25;;;;;;;1.70;0.40;;;;;;;;;;103173;1314;22685;-27
2022/07/15 10:37:57;;;;;;;1.90;0.20;;;;;;;;;;103164;1320;22728;-29
2022/07/15 10:40:46;;;;;;;0.80;0.20;;;;;;;;;;103207;1320;22588;-24
2022/07/15 10:43:15;;;;;;;1.10;0.20;;;;;;;;;;102462;1321;1003862;-26
2022/07/15 10:45:48;;;;;;;0.40;0.20;;;;;;;;;;103158;1323;22725;-30
2022/07/15 10:48:20;;;;;;;0.40;0.20;;;;;;;;;;103240;1320;22856;-25
2022/07/15 10:50:49;;;;;;;1.00;0.20;;;;;;;;;;103206;1320;22687;-27
2022/07/15 10:53:20;;;;;;;0.40;0.10;;;;;;;;;;103220;1326;22971;-29
2022/07/15 10:55:49;;;;;;;0.30;0.10;;;;;;;;;;103273;1323;24262;-25
2022/07/15 10:58:17;;;;;;;0.00;0.00;;;;;;;;;;103217;1323;23024;-29
2022/07/15 11:00:46;;;;;;;5.40;0.20;;;;;;;;;;103290;1314;22722;-25
2022/07/15 11:03:17;;;;;;;0.50;0.20;;;;;;;;;;103300;1320;22575;-25
2022/07/15 11:06:03;;;;;;;0.60;0.20;;;;;;;;;;103169;1320;25408;-27
2022/07/15 11:08:31;;;;;;;1.60;0.20;;;;;;;;;;103136;1320;22819;-29
2022/07/15 11:11:04;;;;;;;2.70;0.50;;;;;;;;;;103241;1314;22555;-29
2022/07/15 11:13:33;;;;;;;1.40;0.60;;;;;;;;;;103213;1320;23005;-29
2022/07/15 11:16:02;;;;;;;1.30;0.50;;;;;;;;;;103135;1314;22787;-26
2022/07/15 11:18:43;;;;;;;1.70;0.10;;;;;;;;;;103311;1314;22810;-25
2022/07/15 11:21:20;;;;;;;0.90;0.40;;;;;;;;;;103182;1314;22544;-27
2022/07/15 11:23:58;;;;;;;7.90;0.30;;;;;;;;;;103290;1313;22547;-28
2022/07/15 11:26:38;;;;;;;0.30;0.20;;;;;;;;;;103166;1323;23065;-29
2022/07/15 11:29:07;;;;;;;1.40;0.20;;;;;;;;;;103169;1320;22831;-31
2022/07/15 11:31:40;;;;;;;0.50;0.20;;;;;;;;;;103159;1317;22565;-31
2022/07/15 11:34:09;;;;;;;0.70;0.30;;;;;;;;;;103282;1320;21804;-29
2022/07/15 11:36:38;;;;;;;1.10;0.20;;;;;;;;;;103127;1323;23047;-29
2022/07/15 11:39:06;;;;;;;1.10;0.50;;;;;;;;;;103369;1323;22563;-29
2022/07/15 11:46:50;;;;;;;1.00;0.20;;;;;;;;;;103320;1314;22949;-26
2022/07/15 11:49:31;;;;;;;0.80;0.20;;;;;;;;;;103257;1328;23940;-25
2022/07/15 11:52:00;;;;;;;0.60;0.10;;;;;;;;;;103086;1321;22577;-24
2022/07/15 11:54:29;;;;;;;0.60;0.20;;;;;;;;;;103214;1320;22679;-26
2022/07/15 11:56:59;;;;;;;0.10;0.10;;;;;;;;;;103141;1314;22595;-28
2022/07/15 11:59:28;;;;;;;1.80;0.20;;;;;;;;;;103310;1321;22667;-29
2022/07/15 12:02:00;;;;;;;0.70;0.20;;;;;;;;;;103196;1314;22570;-29
2022/07/15 12:04:29;;;;;;;0.60;0.10;;;;;;;;;;102860;1320;510698;-25
2022/07/15 12:06:58;;;;;;;0.20;0.10;;;;;;;;;;103186;1320;22970;-29
2022/07/15 12:09:37;;;;;;;0.60;0.20;;;;;;;;;;103234;1323;23036;-29
2022/07/15 12:12:06;;;;;;;2.60;0.50;;;;;;;;;;103195;1320;22568;-29
2022/07/15 12:14:35;;;;;;;1.30;0.30;;;;;;;;;;103163;1323;22558;-29
2022/07/15 12:17:04;;;;;;;1.40;0.30;;;;;;;;;;103184;1320;22708;-25
2022/07/15 12:19:33;;;;;;;1.80;0.50;;;;;;;;;;103344;1314;22566;-31
2022/07/15 12:22:05;;;;;;;1.20;0.20;;;;;;;;;;103206;1314;22565;-24
2022/07/15 12:24:36;;;;;;;0.60;0.30;;;;;;;;;;103202;1320;22565;-29
2022/07/15 12:27:05;;;;;;;0.50;0.20;;;;;;;;;;103158;1320;25340;-25
2022/07/15 12:29:34;;;;;;;2.20;0.80;;;;;;;;;;103172;1314;22562;-25
2022/07/15 12:32:03;;;;;;;1.10;0.20;;;;;;;;;;103227;1292;22562;-26
2022/07/15 12:34:35;;;;;;;1.00;0.10;;;;;;;;;;103209;1314;22568;-28
2022/07/15 12:37:04;;;;;;;5.80;0.10;;;;;;;;;;103315;1320;22828;-27
2022/07/15 12:39:32;;;;;;;1.90;0.70;;;;;;;;;;103154;1313;22563;-25
2022/07/15 12:42:02;;;;;;;1.10;0.30;;;;;;;;;;103312;1313;22552;-25
2022/07/15 12:44:31;;;;;;;6.60;0.20;;;;;;;;;;103172;1320;23052;-30
2022/07/15 12:47:03;;;;;;;0.60;0.30;;;;;;;;;;103334;1314;22770;-29
2022/07/15 12:49:35;;;;;;;0.20;0.20;;;;;;;;;;103130;1320;22960;-28
2022/07/15 12:52:07;;;;;;;0.20;0.20;;;;;;;;;;103167;1320;22581;-28
2022/07/15 12:54:36;;;;;;;0.30;0.20;;;;;;;;;;103317;1320;22822;-30
2022/07/15 12:57:05;;;;;;;2.20;0.50;;;;;;;;;;103187;1322;22824;-31
2022/07/15 12:59:37;;;;;;;0.60;0.10;;;;;;;;;;103245;1313;22556;-31
2022/07/15 13:02:06;;;;;;;0.60;0.30;;;;;;;;;;103165;1320;22911;-26
2022/07/15 13:04:35;;;;;;;1.10;0.40;;;;;;;;;;103260;1314;22713;-25
2022/07/15 13:07:04;;;;;;;0.60;0.20;;;;;;;;;;103205;1314;22562;-29
2022/07/15 13:09:33;;;;;;;0.90;0.20;;;;;;;;;;103249;1315;22575;-29
2022/07/15 13:12:02;;;;;;;2.50;0.40;;;;;;;;;;103126;1315;22577;-25
2022/07/15 13:14:30;;;;;;;0.50;0.20;;;;;;;;;;103268;1314;22562;-25
2022/07/15 13:16:59;;;;;;;1.10;0.40;;;;;;;;;;103086;1313;22570;-25
2022/07/15 13:19:28;;;;;;;1.20;0.20;;;;;;;;;;103131;1320;22815;-27
2022/07/15 13:21:57;;;;;;;0.50;0.00;;;;;;;;;;103204;1314;22544;-24
2022/07/15 13:24:26;;;;;;;1.10;0.40;;;;;;;;;;103414;1323;22724;-28
2022/07/15 13:26:55;;;;;;;2.60;0.30;;;;;;;;;;103113;1323;22706;-25
2022/07/15 13:29:23;;;;;;;0.10;0.10;;;;;;;;;;103136;1323;22712;-28
2022/07/15 13:31:52;;;;;;;2.40;0.10;;;;;;;;;;103228;1320;22568;-28
2022/07/15 13:34:21;;;;;;;1.60;0.30;;;;;;;;;;103310;1324;22595;-28
2022/07/15 13:36:50;;;;;;;1.50;0.20;;;;;;;;;;103133;1320;22857;-24
2022/07/15 13:39:19;;;;;;;0.50;0.10;;;;;;;;;;103137;1323;22549;-30
2022/07/15 13:41:56;;;;;;;0.20;0.10;;;;;;;;;;103322;1323;22663;-30
2022/07/15 13:44:33;;;;;;;0.50;0.10;;;;;;;;;;103096;1322;22987;-26
2022/07/15 13:47:02;;;;;;;0.90;0.20;;;;;;;;;;103143;1314;22552;-27
2022/07/15 13:52:03;;;;;;;1.40;0.20;;;;;;;;;;103141;1320;24346;-29
2022/07/15 13:54:32;;;;;;;0.80;0.20;;;;;;;;;;103222;1317;22720;-25
2022/07/15 13:57:01;;;;;;;1.90;0.50;;;;;;;;;;103145;1320;22579;-25
2022/07/15 13:59:30;;;;;;;2.90;0.20;;;;;;;;;;103196;1314;22692;-28
2022/07/15 14:01:59;;;;;;;1.40;0.30;;;;;;;;;;103199;1313;22863;-25
2022/07/15 14:04:28;;;;;;;2.20;0.40;;;;;;;;;;103237;1320;22721;-28
2022/07/15 14:06:57;;;;;;;1.20;0.10;;;;;;;;;;103234;1320;22692;-24
2022/07/15 14:09:25;;;;;;;1.40;0.30;;;;;;;;;;103292;1325;22551;-27
2022/07/15 14:11:54;;;;;;;24.80;0.30;;;;;;;;;;103191;1314;22835;-28
2022/07/15 14:14:23;;;;;;;0.80;0.00;;;;;;;;;;103120;1323;22926;-25
2022/07/15 14:16:52;;;;;;;0.90;0.60;;;;;;;;;;103127;1314;22565;-25
2022/07/15 14:19:21;;;;;;;0.90;0.20;;;;;;;;;;103183;1320;22720;-29
2022/07/15 14:21:50;;;;;;;1.10;0.40;;;;;;;;;;103275;1323;22552;-29
2022/07/15 14:24:19;;;;;;;1.00;0.20;;;;;;;;;;103205;1321;22835;-28
2022/07/15 14:26:47;;;;;;;1.00;0.10;;;;;;;;;;103149;1320;22574;-31
2022/07/15 14:29:16;;;;;;;1.30;0.20;;;;;;;;;;103161;1324;22725;-31
2022/07/15 14:31:45;;;;;;;1.60;0.40;;;;;;;;;;103185;1323;22568;-29
2022/07/15 14:34:14;;;;;;;1.40;0.40;;;;;;;;;;103233;1323;22723;-23
2022/07/15 14:36:42;;;;;;;0.40;0.30;;;;;;;;;;103267;1323;22731;-26
2022/07/15 14:39:11;;;;;;;0.40;0.30;;;;;;;;;;103174;1316;22565;-28
2022/07/15 14:41:40;;;;;;;0.90;0.30;;;;;;;;;;103291;1313;22705;-29
2022/07/15 14:44:17;;;;;;;1.00;0.30;;;;;;;;;;103132;1320;22559;-24
2022/07/15 14:46:46;;;;;;;1.20;0.30;;;;;;;;;;103134;1320;22717;-25
2022/07/15 14:49:15;;;;;;;2.00;0.40;;;;;;;;;;103097;1323;25276;-25
2022/07/15 14:51:44;;;;;;;0.80;0.30;;;;;;;;;;103195;1328;22556;-29
2022/07/15 14:54:13;;;;;;;0.70;0.20;;;;;;;;;;103151;1320;22819;-26
2022/07/15 14:56:42;;;;;;;2.40;0.20;;;;;;;;;;103158;1314;22770;-30
2022/07/15 14:59:11;;;;;;;0.40;0.30;;;;;;;;;;103150;1320;22717;-27